MHTG/TGU METAR and TAF weather

Enter ICAO airport designator
Station Type Date Time Source
MHTG METAR 2022/01/25 05:00 UTC NOAA

MHTG 250500Z 26003KT CAVOK 18/14 Q1020 A3012 NOSIG


Station Type Date Time Source
MHTG Decoded METAR 2022/01/25 05:00 UTC NOAA

Tegucigalpa, Honduras (MHTG) 14-03N 087-13W 1007M
Jan 25, 2022 - 12:00 AM EST / 2022.01.25 0500 UTC
Wind: from the W (260 degrees) at 3 MPH (3 KT):0
Visibility: greater than 7 mile(s):0
Temperature: 64 F (18 C)
Dew Point: 57 F (14 C)
Relative Humidity: 77%
Pressure (altimeter): 30.12 in. Hg (1019 hPa)
ob: MHTG 250500Z 26003KT CAVOK 18/14 Q1020 A3012 NOSIG
cycle: 5

Station Type Date Time Source
MHTG TAF 2022/01/25 06:42 UTC NOAA

TAF MHTG 250440Z 2506/2606 VRB03KT 9999 FEW028 TX30/2521Z TN14/2512Z
BECMG 2510/2512 FEW008 BKN026
BECMG 2513/2515 10006KT SCT036KT

Example: see airport list